Data for 01/29/2008

Time Sea-Level Adjusted Pressure Absolute Pressure Temperature Relative Humidity Dew Point   
(mb) (inHg) (mb) (inHg) (C) (F) (%) (C) (F)
00:05 1005 29.68 834 24.63 -23.2 -9.7 83 -25.2 -13.4
00:10 1005 29.68 834 24.63 -22.6 -8.7 80 -25.2 -13.3
00:15 1005 29.68 834 24.63 -22.6 -8.7 81 -25.1 -13.2
00:20 1005 29.68 834 24.63 -22.7 -8.8 79 -25.3 -13.6
00:25 1005 29.68 834 24.63 -22.9 -9.1 81 -25.2 -13.4
00:30 1005 29.68 835 24.66 -22.6 -8.6 81 -24.9 -12.9
00:35 1005 29.68 835 24.66 -22.2 -7.9 84 -24.2 -11.6
00:40 1005 29.68 835 24.66 -21.6 -7 84 -23.6 -10.5
00:45 1005 29.68 835 24.66 -21.2 -6.1 82 -23.5 -10.3
00:50 1005 29.68 835 24.66 -21.1 -5.9 82 -23.4 -10.1
00:55 1005 29.68 834 24.63 -21 -5.8 80 -23.5 -10.4
01:00 1005 29.68 835 24.66 -20.9 -5.6 80 -23.5 -10.4
01:05 1005 29.68 835 24.66 -21.2 -6.2 80 -23.8 -10.8
01:10 1005 29.68 835 24.66 -21.4 -6.5 83 -23.6 -10.5
01:15 1005 29.68 835 24.66 -20.9 -5.6 81 -23.3 -9.9
01:20 1005 29.68 835 24.66 -20.7 -5.3 83 -22.9 -9.3
01:25 1005 29.68 835 24.66 -20.7 -5.2 82 -23 -9.5
01:30 1005 29.68 835 24.66 -20.7 -5.2 82 -23 -9.3
01:35 1005 29.68 835 24.66 -20.6 -5 82 -22.8 -9.1
01:40 1005 29.68 835 24.66 -20.6 -5.2 82 -23 -9.4
01:45 1005 29.68 835 24.66 -20.6 -5.1 84 -22.6 -8.7
01:50 1005 29.68 835 24.66 -20 -4 83 -22.1 -7.8
01:55 1005 29.68 834 24.63 -19.6 -3.2 83 -21.8 -7.2
02:00 1005 29.68 835 24.66 -19.3 -2.7 82 -21.7 -7
02:05 1005 29.68 835 24.66 -19.3 -2.7 84 -21.3 -6.3
02:10 1005 29.68 834 24.63 -18.8 -1.9 85 -20.7 -5.3
02:15 1005 29.68 834 24.63 -18.2 -0.8 84 -20.4 -4.7
02:20 1005 29.68 834 24.63 -17.9 -0.2 83 -20.1 -4.2
02:25 1005 29.68 834 24.63 -17.5 0.5 82 -19.9 -3.8
02:30 1005 29.68 834 24.63 -17.5 0.5 83 -19.7 -3.5
02:35 1005 29.68 834 24.63 -17.1 1.3 85 -19.1 -2.3
02:40 1005 29.68 834 24.63 -15.6 4 80 -18.2 -0.8
02:45 1005 29.68 834 24.63 -15.4 4.3 82 -17.8 -0.1
02:50 1005 29.68 834 24.63 -14.9 5.2 79 -17.8 -0.1
02:55 1005 29.68 834 24.63 -14.1 6.6 79 -17.1 1.3
03:00 1005 29.68 834 24.63 -13.6 7.5 76 -16.9 1.5
03:05 1005 29.68 834 24.63 -14 6.9 77 -17.2 1
03:10 1005 29.68 834 24.63 -14.2 6.4 79 -17.1 1.1
03:15 1005 29.68 834 24.63 -14 6.8 78 -17 1.3
03:20 1005 29.68 834 24.63 -13.2 8.3 76 -16.6 2.2
03:25 1005 29.68 834 24.63 -12.6 9.4 72 -16.6 2.1
03:30 1005 29.68 835 24.66 -13.6 7.4 74 -17.4 0.7
03:35 1005 29.68 835 24.66 -14.3 6.2 77 -17.4 0.6
03:40 1005 29.68 834 24.63 -14.4 6.1 77 -17.6 0.3
03:45 1005 29.68 834 24.63 -13.7 7.3 76 -17.1 1.2
03:50 1005 29.68 835 24.66 -13.8 7.2 75 -17.3 0.9
03:55 1005 29.68 835 24.66 -13.8 7.2 75 -17.3 0.8
04:00 1005 29.68 835 24.66 -13.3 8 73 -17.2 1.1
04:05 1005 29.68 835 24.66 -13.1 8.4 72 -17.2 1.1
04:10 1005 29.68 835 24.66 -13 8.6 71 -17.2 1
04:15 1005 29.68 835 24.66 -12.6 9.3 71 -16.9 1.6
04:20 1005 29.68 834 24.63 -12.2 10 72 -16.4 2.5
04:25 1005 29.68 835 24.66 -12.1 10.2 71 -16.4 2.5
04:30 1005 29.68 835 24.66 -12.2 10 70 -16.6 2.1
04:35 1005 29.68 835 24.66 -12.1 10.2 68 -16.8 1.8
04:40 1005 29.68 835 24.66 -11.6 11.2 68 -16.3 2.6
04:45 1005 29.68 835 24.66 -11.5 11.4 69 -16.1 3
04:50 1006 29.71 835 24.66 -11.3 11.7 67 -16.2 2.8
04:55 1006 29.71 835 24.66 -10.5 13.1 67 -15.6 4
05:00 1006 29.71 835 24.66 -10.4 13.3 68 -15.2 4.7
05:05 1006 29.71 835 24.66 -10.6 13 66 -15.8 3.5
05:10 1005 29.68 835 24.66 -9.6 14.8 61 -15.8 3.6
05:15 1005 29.68 835 24.66 -8.6 16.6 57 -15.6 4
05:20 1005 29.68 835 24.66 -8.3 17 57 -15.4 4.4
05:25 1005 29.68 834 24.63 -8.2 17.2 58 -15.2 4.7
05:30 1005 29.68 835 24.66 -8.2 17.2 57 -15.3 4.4
05:35 1005 29.68 834 24.63 -8.2 17.2 56 -15.6 3.9
05:40 1005 29.68 834 24.63 -8.2 17.3 55 -15.8 3.6
05:45 1005 29.68 834 24.63 -8.1 17.4 57 -15.3 4.5
05:50 1005 29.68 834 24.63 -8 17.5 57 -15.2 4.6
05:55 1005 29.68 834 24.63 -8 17.6 57 -15.1 4.9
06:00 1005 29.68 834 24.63 -8 17.5 57 -15.2 4.6
06:05 1005 29.68 834 24.63 -7.9 17.9 55 -15.3 4.4
06:10 1005 29.68 834 24.63 -7.7 18.1 55 -15.3 4.5
06:15 1005 29.68 834 24.63 -7.6 18.3 54 -15.3 4.4
06:20 1005 29.68 834 24.63 -7.5 18.4 53 -15.6 4
06:25 1005 29.68 834 24.63 -7.5 18.5 52 -15.6 3.9
06:30 1005 29.68 835 24.66 -7.5 18.6 53 -15.6 4
06:35 1005 29.68 835 24.66 -7.6 18.4 53 -15.6 3.9
06:40 1005 29.68 835 24.66 -7.6 18.3 54 -15.4 4.3
06:45 1005 29.68 835 24.66 -7.5 18.4 53 -15.5 4.1
06:50 1005 29.68 835 24.66 -7.5 18.6 53 -15.4 4.3
06:55 1005 29.68 835 24.66 -7.5 18.5 55 -15 4.9
07:00 1005 29.68 835 24.66 -7.6 18.3 55 -15.1 4.8
07:05 1005 29.68 834 24.63 -7.6 18.4 54 -15.3 4.5
07:10 1005 29.68 835 24.66 -7.5 18.6 55 -15 5
07:15 1005 29.68 835 24.66 -7.5 18.6 56 -14.8 5.4
07:20 1005 29.68 835 24.66 -7.5 18.6 56 -14.8 5.3
07:25 1005 29.68 835 24.66 -7.4 18.8 55 -15 5
07:30 1005 29.68 835 24.66 -7.2 19 54 -15.1 4.9
07:35 1005 29.68 834 24.63 -7.1 19.1 54 -14.8 5.3
07:40 1005 29.68 834 24.63 -7.1 19.2 54 -15 5
07:45 1005 29.68 834 24.63 -7 19.3 54 -14.8 5.3
07:50 1005 29.68 834 24.63 -7.1 19.3 54 -14.8 5.4
07:55 1005 29.68 834 24.63 -7 19.4 54 -14.8 5.3
08:00 1005 29.68 834 24.63 -6.9 19.5 55 -14.5 5.9
08:05 1005 29.68 834 24.63 -7 19.5 55 -14.6 5.7
08:10 1005 29.68 835 24.66 -6.9 19.6 54 -14.8 5.4
08:15 1005 29.68 835 24.66 -6.8 19.8 53 -15 5.1
08:20 1005 29.68 835 24.66 -6.9 19.7 55 -14.5 5.9
08:25 1005 29.68 835 24.66 -6.8 19.8 52 -15.1 4.8
08:30 1005 29.68 835 24.66 -6.6 20.1 53 -14.7 5.5
08:35 1005 29.68 835 24.66 -6.6 20.2 53 -14.6 5.6
08:40 1006 29.71 835 24.66 -6.6 20.1 54 -14.5 6
08:45 1006 29.71 835 24.66 -6.6 20.2 53 -14.6 5.6
08:50 1006 29.71 835 24.66 -6.5 20.3 51 -15 5
08:55 1006 29.71 835 24.66 -6.4 20.5 51 -15 5.1
09:00 1006 29.71 835 24.66 -6.2 20.8 50 -15 5
09:05 1006 29.71 835 24.66 -6.2 20.9 49 -15.1 4.8
09:10 1006 29.71 835 24.66 -6.1 20.9 50 -15 5.1
09:15 1006 29.71 835 24.66 -6.1 21 51 -14.8 5.4
09:20 1006 29.71 835 24.66 -6.2 20.9 51 -14.7 5.6
09:25 1006 29.71 835 24.66 -6.1 21.1 50 -14.9 5.1
09:30 1006 29.71 835 24.66 -6 21.2 50 -14.7 5.5
09:35 1006 29.71 835 24.66 -6 21.2 49 -15 5
09:40 1006 29.71 835 24.66 -5.9 21.4 50 -14.8 5.4
09:45 1006 29.71 835 24.66 -5.8 21.5 51 -14.5 5.8
09:50 1006 29.71 835 24.66 -5.8 21.5 51 -14.5 5.9
09:55 1006 29.71 835 24.66 -5.7 21.7 49 -14.8 5.4
10:00 1006 29.71 835 24.66 -5.6 21.9 50 -14.3 6.2
10:05 1006 29.71 835 24.66 -5.6 21.9 51 -14.3 6.3
10:10 1005 29.68 835 24.66 -5.5 22.1 50 -14.5 6
10:15 1005 29.68 834 24.63 -5.5 22.2 47 -15 5
10:20 1005 29.68 834 24.63 -5.4 22.3 46 -15.3 4.5
10:25 1005 29.68 834 24.63 -5.2 22.7 47 -14.9 5.2
10:30 1005 29.68 834 24.63 -5.1 22.9 44 -15.6 3.9
10:35 1005 29.68 834 24.63 -4.6 23.6 45 -14.9 5.2
10:40 1005 29.68 834 24.63 -3.9 25 44 -14.4 6.1
10:45 1005 29.68 834 24.63 -3.6 25.6 43 -14.5 5.8
10:50 1005 29.68 834 24.63 -3.6 25.5 44 -14.3 6.3
10:55 1005 29.68 834 24.63 -4 24.9 45 -14.1 6.6
11:00 1005 29.68 834 24.63 -4.2 24.5 45 -14.5 5.8
11:05 1005 29.68 834 24.63 -4 24.9 43 -14.7 5.6
11:10 1005 29.68 834 24.63 -3.8 25.2 44 -14.2 6.4
11:15 1005 29.68 834 24.63 -3.7 25.3 45 -14 6.9
11:20 1005 29.68 834 24.63 -3.7 25.4 44 -14.2 6.4
11:25 1005 29.68 834 24.63 -3.6 25.5 44 -14.2 6.5
11:30 1005 29.68 834 24.63 -3.5 25.7 45 -13.7 7.3
11:35 1005 29.68 834 24.63 -3.2 26.2 44 -13.9 7.1
11:40 1005 29.68 834 24.63 -2.9 26.7 45 -13.4 7.9
11:45 1005 29.68 834 24.63 -3.3 26.1 46 -13.4 8
11:50 1005 29.68 834 24.63 -3.2 26.3 42 -14.2 6.4
11:55 1005 29.68 834 24.63 -3.6 25.6 44 -14.1 6.6
12:00 1005 29.68 834 24.63 -3.9 24.9 46 -13.9 7
12:05 1005 29.68 834 24.63 -3.8 25.2 46 -13.9 6.9
12:10 1005 29.68 834 24.63 -3.6 25.6 45 -13.7 7.3
12:15 1004 29.65 834 24.63 -3.7 25.3 44 -14.2 6.4
12:20 1004 29.65 834 24.63 -3.9 25.1 44 -14.4 6.1
12:25 1004 29.65 834 24.63 -3.7 25.3 43 -14.5 6
12:30 1004 29.65 834 24.63 -3.7 25.3 43 -14.6 5.7
12:35 1004 29.65 833 24.6 -3.7 25.3 43 -14.7 5.6
12:40 1004 29.65 833 24.6 -3.7 25.3 44 -14.4 6.1
12:45 1004 29.65 833 24.6 -3.6 25.5 44 -14.1 6.6
12:50 1004 29.65 833 24.6 -3.5 25.7 44 -14.1 6.7
12:55 1004 29.65 833 24.6 -3.3 26.1 43 -14.1 6.6
13:00 1004 29.65 833 24.6 -3.1 26.3 43 -14 6.7
13:05 1004 29.65 833 24.6 -3.3 26 43 -14.3 6.3
13:10 1004 29.65 833 24.6 -3.4 25.8 44 -14.1 6.5
13:15 1004 29.65 833 24.6 -3.4 25.9 43 -14.2 6.4
13:20 1004 29.65 833 24.6 -3.5 25.8 42 -14.7 5.6
13:25 1004 29.65 833 24.6 -3.4 25.8 42 -14.6 5.8
13:30 1004 29.65 833 24.6 -3.4 25.8 44 -13.9 7
13:35 1004 29.65 833 24.6 -3.4 25.8 42 -14.5 5.9
13:40 1004 29.65 833 24.6 -3.4 25.8 45 -13.7 7.4
13:45 1004 29.65 833 24.6 -3.4 25.9 44 -14.1 6.7
13:50 1004 29.65 833 24.6 -3.3 26.1 45 -13.7 7.4
13:55 1003 29.62 833 24.6 -3.3 26 43 -14.2 6.4
14:00 1003 29.62 833 24.6 -3.3 26.1 45 -13.7 7.3
14:05 1003 29.62 833 24.6 -3 26.6 44 -13.7 7.3
14:10 1003 29.62 832 24.57 -3.1 26.4 44 -13.9 7.1
14:15 1003 29.62 832 24.57 -3.4 25.9 43 -14.2 6.5
14:20 1003 29.62 832 24.57 -3.4 25.9 44 -14 6.7
14:25 1003 29.62 832 24.57 -3.4 25.8 43 -14.3 6.3
14:30 1003 29.62 832 24.57 -3.3 26 42 -14.4 6.1
14:35 1003 29.62 832 24.57 -3.2 26.2 41 -14.6 5.8
14:40 1003 29.62 832 24.57 -3.2 26.2 41 -14.6 5.8
14:45 1003 29.62 832 24.57 -3.2 26.3 42 -14.3 6.3
14:50 1003 29.62 832 24.57 -3.1 26.5 42 -14.3 6.3
14:55 1003 29.62 832 24.57 -3.1 26.5 44 -13.7 7.4
15:00 1003 29.62 832 24.57 -2.8 27 44 -13.5 7.6
15:05 1003 29.62 832 24.57 -2.6 27.3 44 -13.3 8
15:10 1003 29.62 832 24.57 -2.8 27 45 -13.1 8.5
15:15 1003 29.62 832 24.57 -2.8 27 43 -13.8 7.1
15:20 1003 29.62 832 24.57 -2.9 26.7 43 -13.7 7.3
15:25 1003 29.62 832 24.57 -2.9 26.8 44 -13.5 7.6
15:30 1003 29.62 832 24.57 -2.9 26.8 47 -12.7 9.1
15:35 1003 29.62 832 24.57 -3 26.7 46 -12.9 8.7
15:40 1003 29.62 832 24.57 -3 26.6 47 -12.9 8.8
15:45 1003 29.62 832 24.57 -3.1 26.4 47 -12.9 8.8
15:50 1003 29.62 832 24.57 -3.1 26.4 47 -12.9 8.7
15:55 1003 29.62 832 24.57 -3 26.7 47 -12.8 9
16:00 1003 29.62 832 24.57 -3 26.6 45 -13.4 7.8
16:05 1003 29.62 832 24.57 -3.1 26.4 45 -13.4 7.8
16:10 1003 29.62 832 24.57 -3.1 26.4 45 -13.5 7.6
16:15 1003 29.62 832 24.57 -3.1 26.4 44 -13.9 7.1
16:20 1003 29.62 832 24.57 -3.1 26.5 44 -13.7 7.4
16:25 1003 29.62 832 24.57 -3 26.6 45 -13.3 8
16:30 1003 29.62 832 24.57 -3.1 26.5 45 -13.4 7.9
16:35 1003 29.62 832 24.57 -3.1 26.4 45 -13.5 7.7
16:40 1003 29.62 832 24.57 -3.2 26.2 46 -13.3 8
16:45 1003 29.62 832 24.57 -3.3 26 47 -13 8.6
16:50 1002 29.59 832 24.57 -3.5 25.7 47 -13.3 8
16:55 1002 29.59 832 24.57 -3.3 26 45 -13.6 7.6
17:00 1002 29.59 832 24.57 -3.2 26.3 46 -13.2 8.3
17:05 1002 29.59 832 24.57 -3.3 26.1 48 -12.9 8.8
17:10 1002 29.59 832 24.57 -3.1 26.4 43 -13.9 7
17:15 1002 29.59 832 24.57 -3 26.7 43 -13.8 7.2
17:20 1002 29.59 832 24.57 -3 26.7 45 -13.3 8
17:25 1003 29.62 832 24.57 -3.1 26.4 44 -13.7 7.4
17:30 1003 29.62 832 24.57 -3.3 26.2 45 -13.5 7.7
17:35 1002 29.59 832 24.57 -3.4 25.9 48 -13 8.6
17:40 1002 29.59 832 24.57 -3.4 26 49 -12.7 9.2
17:45 1002 29.59 832 24.57 -3.6 25.5 50 -12.5 9.5
17:50 1002 29.59 832 24.57 -3.7 25.3 51 -12.5 9.6
17:55 1002 29.59 832 24.57 -3.7 25.3 45 -14 6.9
18:00 1002 29.59 832 24.57 -3.5 25.7 46 -13.5 7.7
18:05 1002 29.59 832 24.57 -3.4 25.8 46 -13.6 7.6
18:10 1002 29.59 831 24.54 -3.2 26.2 43 -14 6.8
18:15 1002 29.59 831 24.54 -3.1 26.4 43 -13.9 6.9
18:20 1002 29.59 831 24.54 -3.2 26.2 47 -13.1 8.4
18:25 1002 29.59 831 24.54 -3.6 25.6 48 -13.1 8.4
18:30 1002 29.59 831 24.54 -3.7 25.3 50 -12.8 8.9
18:35 1002 29.59 831 24.54 -3.6 25.5 47 -13.5 7.7
18:40 1002 29.59 831 24.54 -3.4 25.8 47 -13.3 8.1
18:45 1002 29.59 831 24.54 -3.3 26.1 44 -13.9 6.9
18:50 1002 29.59 831 24.54 -3.1 26.5 43 -14.1 6.7
18:55 1002 29.59 831 24.54 -3 26.6 43 -14 6.8
19:00 1002 29.59 831 24.54 -3.1 26.5 43 -13.9 6.9
19:05 1002 29.59 831 24.54 -3 26.6 41 -14.4 6.1
19:10 1002 29.59 831 24.54 -2.9 26.7 42 -14.2 6.5
19:15 1002 29.59 831 24.54 -2.9 26.7 41 -14.6 5.8
19:20 1002 29.59 831 24.54 -2.9 26.8 41 -14.2 6.4
19:25 1002 29.59 831 24.54 -2.9 26.7 43 -14 6.8
19:30 1002 29.59 831 24.54 -3.1 26.5 44 -13.7 7.3
19:35 1002 29.59 831 24.54 -3.2 26.2 46 -13.3 8.1
19:40 1002 29.59 831 24.54 -3.5 25.8 47 -13.1 8.4
19:45 1002 29.59 831 24.54 -3.6 25.6 46 -13.5 7.7
19:50 1002 29.59 831 24.54 -3.6 25.6 47 -13.4 7.9
19:55 1002 29.59 831 24.54 -3.6 25.6 46 -13.5 7.7
20:00 1002 29.59 831 24.54 -3.6 25.5 47 -13.3 8
20:05 1002 29.59 831 24.54 -3.7 25.3 46 -13.6 7.5
20:10 1002 29.59 831 24.54 -3.8 25.2 46 -13.9 7
20:15 1002 29.59 831 24.54 -3.7 25.3 47 -13.5 7.7
20:20 1002 29.59 831 24.54 -3.6 25.5 47 -13.5 7.8
20:25 1002 29.59 831 24.54 -3.6 25.6 47 -13.4 7.9
20:30 1002 29.59 831 24.54 -3.6 25.5 48 -13.1 8.5
20:35 1002 29.59 831 24.54 -3.6 25.5 49 -12.9 8.8
20:40 1002 29.59 831 24.54 -3.4 25.9 47 -13.1 8.4
20:45 1002 29.59 831 24.54 -3.4 25.9 46 -13.5 7.7
20:50 1002 29.59 831 24.54 -3.3 26 46 -13.4 7.8
20:55 1002 29.59 831 24.54 -3.4 25.9 47 -13.1 8.5
21:00 1002 29.59 831 24.54 -3.6 25.5 48 -13 8.5
21:05 1002 29.59 831 24.54 -3.6 25.5 48 -13 8.6
21:10 1002 29.59 831 24.54 -3.6 25.6 49 -12.7 9.1
21:15 1002 29.59 831 24.54 -3.8 25.1 52 -12.3 9.9
21:20 1002 29.59 831 24.54 -4.4 24.1 54 -12.5 9.5
21:25 1002 29.59 831 24.54 -4.7 23.6 56 -12.3 9.9
21:30 1002 29.59 831 24.54 -4.7 23.5 54 -12.7 9.1
21:35 1002 29.59 831 24.54 -4.7 23.6 54 -12.5 9.5
21:40 1002 29.59 831 24.54 -4.7 23.6 55 -12.5 9.5
21:45 1002 29.59 831 24.54 -4.6 23.7 53 -12.8 8.9
21:50 1002 29.59 831 24.54 -4.4 24.1 56 -12 10.4
21:55 1002 29.59 831 24.54 -4.4 24.1 54 -12.4 9.7
22:00 1002 29.59 831 24.54 -4.4 24.1 56 -12 10.4
22:05 1002 29.59 831 24.54 -4.3 24.2 55 -12.2 10.1
22:10 1002 29.59 831 24.54 -4.2 24.4 56 -11.8 10.8
22:15 1002 29.59 831 24.54 -4.2 24.5 53 -12.3 9.9
22:20 1002 29.59 831 24.54 -4.3 24.3 54 -12.2 10.1
22:25 1002 29.59 831 24.54 -4.1 24.6 51 -12.7 9.1
22:30 1002 29.59 831 24.54 -4.1 24.6 52 -12.5 9.4
22:35 1002 29.59 831 24.54 -4 24.9 51 -12.7 9.2
22:40 1002 29.59 831 24.54 -4 24.9 51 -12.7 9.2
22:45 1002 29.59 831 24.54 -4.1 24.6 53 -12.4 9.7
22:50 1002 29.59 831 24.54 -4.2 24.4 53 -12.4 9.6
22:55 1002 29.59 831 24.54 -4.1 24.6 56 -11.7 10.9
23:00 1002 29.59 831 24.54 -4.4 24.1 57 -11.6 11.1
23:05 1002 29.59 831 24.54 -4.8 23.4 57 -12 10.5
23:10 1002 29.59 831 24.54 -4.8 23.4 55 -12.5 9.5
23:15 1002 29.59 831 24.54 -4.7 23.6 53 -12.8 9
23:20 1002 29.59 831 24.54 -4.6 23.8 54 -12.5 9.5
23:25 1002 29.59 831 24.54 -4.6 23.7 54 -12.5 9.5
23:30 1002 29.59 832 24.57 -4.7 23.5 55 -12.5 9.5
23:35 1002 29.59 832 24.57 -4.8 23.4 56 -12.3 9.8
23:40 1002 29.59 832 24.57 -4.8 23.3 59 -11.7 11
23:45 1002 29.59 832 24.57 -5 23.1 61 -11.4 11.5
23:50 1002 29.59 832 24.57 -5.1 22.9 62 -11.2 11.9
23:55 1002 29.59 832 24.57 -5.2 22.6 64 -10.9 12.3
24:00 1003 29.62 832 24.57 -5.3 22.5 66 -10.7 12.8